createdAt,value
2018-10-11T00:10:12.452Z,15.11
2018-10-11T00:10:12.553Z,16.67
2018-10-11T00:10:12.563Z,16.67
2018-10-11T00:10:12.580Z,16.67
2018-10-11T00:16:07.448Z,16.74
2018-10-11T00:22:02.487Z,17.95
2018-10-11T00:27:57.434Z,18.16
2018-10-11T00:33:52.444Z,16.03
2018-10-11T00:39:47.496Z,19.43
2018-10-11T00:45:42.439Z,16.27
2018-10-11T00:51:37.444Z,15.94
2018-10-11T00:57:32.440Z,15.7
2018-10-11T01:21:12.481Z,21.5
2018-10-11T01:21:12.641Z,17.5
2018-10-11T01:21:12.653Z,17.5
2018-10-11T01:21:12.706Z,17.5
2018-10-11T01:27:07.441Z,17.03
2018-10-11T01:33:02.470Z,18.1
2018-10-11T01:38:57.426Z,19.1
2018-10-11T01:44:52.465Z,16.98
2018-10-11T01:50:47.470Z,17.39
2018-10-11T01:56:42.498Z,16.32
2018-10-11T02:02:37.459Z,20.33
2018-10-11T02:08:32.465Z,19.12
2018-10-11T02:14:27.465Z,19.06
2018-10-11T02:20:22.443Z,17.21
2018-10-11T02:26:17.483Z,17.23
2018-10-11T02:32:12.597Z,17.26
2018-10-11T02:38:07.452Z,17.07
2018-10-11T02:44:02.455Z,22.43
2018-10-11T02:49:57.471Z,25.92
2018-10-11T03:13:37.527Z,22.41
2018-10-11T03:13:37.555Z,24.85
2018-10-11T03:13:37.577Z,24.85
2018-10-11T03:13:37.599Z,24.85
2018-10-11T03:19:32.467Z,21.63
2018-10-11T03:25:27.485Z,24.95
2018-10-11T03:31:22.525Z,25.92
2018-10-11T03:37:17.445Z,28.97
2018-10-11T03:43:12.481Z,20.53
2018-10-11T03:49:07.508Z,24.3
2018-10-11T03:55:02.492Z,24.9
2018-10-11T04:00:57.499Z,24.48
2018-10-11T04:06:52.480Z,23.87
2018-10-11T04:12:47.490Z,24.23
2018-10-11T04:18:42.497Z,25.92
2018-10-11T04:24:37.458Z,23.03
2018-10-11T04:30:32.508Z,22.33
2018-10-11T04:36:27.472Z,22.74
2018-10-11T04:42:22.466Z,19.59
2018-10-11T04:48:17.497Z,20.28
2018-10-11T04:54:12.512Z,24.32
2018-10-11T05:00:07.472Z,23.09
2018-10-11T05:06:02.506Z,28.26
2018-10-11T05:11:57.452Z,22.3
2018-10-11T05:17:52.492Z,20.84
2018-10-11T05:23:47.492Z,28.89
2018-10-11T05:29:42.484Z,27.35
2018-10-11T05:35:37.479Z,42.65
2018-10-11T05:41:32.457Z,28.63
2018-10-11T05:47:27.476Z,28.53
2018-10-11T06:11:07.507Z,30.33
2018-10-11T06:11:07.562Z,38.82
2018-10-11T06:11:07.593Z,38.82
2018-10-11T06:11:07.619Z,38.82
2018-10-11T06:17:02.468Z,36.78
2018-10-11T06:22:57.473Z,33.93
2018-10-11T06:28:52.493Z,36.47
2018-10-11T06:34:47.482Z,38.67
2018-10-11T06:40:42.504Z,42.87
2018-10-11T06:46:37.562Z,44.59
2018-10-11T06:52:32.480Z,37.93
2018-10-11T06:58:27.466Z,50.51
2018-10-11T07:04:22.485Z,86.98
2018-10-11T07:10:17.480Z,86.11
2018-10-11T07:16:12.504Z,81.95
2018-10-11T07:22:07.470Z,73.21
2018-10-11T07:28:02.488Z,66.44
2018-10-11T07:33:57.496Z,62.43
2018-10-11T07:39:52.487Z,60.81
2018-10-11T07:45:47.473Z,76.67
2018-10-11T07:51:42.494Z,69.8
2018-10-11T07:57:37.485Z,50.1
2018-10-11T08:03:32.610Z,60.73
2018-10-11T08:09:27.474Z,60.07
2018-10-11T08:15:22.488Z,54.9
2018-10-11T08:21:17.473Z,59.7
2018-10-11T08:27:12.505Z,57.56
2018-10-11T08:33:07.592Z,56.56
2018-10-11T08:39:02.513Z,54.96
2018-10-11T08:44:57.481Z,48.79
2018-10-11T08:50:52.591Z,50.44
2018-10-11T09:14:32.505Z,47.62
2018-10-11T09:14:32.639Z,53.3
2018-10-11T09:14:32.650Z,53.3
2018-10-11T09:14:32.669Z,53.3
2018-10-11T09:20:27.488Z,47.02
2018-10-11T09:26:22.518Z,46.78
2018-10-11T09:32:17.482Z,48.69
2018-10-11T09:38:12.561Z,46.46
2018-10-11T09:44:07.518Z,51.28
2018-10-11T09:50:02.498Z,47.95
2018-10-11T09:55:57.495Z,44.76
2018-10-11T10:01:52.596Z,43.25
2018-10-11T10:07:47.527Z,41.21
2018-10-11T10:13:42.541Z,37.81
2018-10-11T10:19:37.521Z,48.3
2018-10-11T10:25:32.522Z,42.13
2018-10-11T10:31:27.579Z,36.92
2018-10-11T10:37:22.522Z,33.4
2018-10-11T10:43:17.543Z,35.26
2018-10-11T10:49:12.510Z,34.3
2018-10-11T10:55:07.505Z,31.52
2018-10-11T11:01:02.583Z,29.65
2018-10-11T11:06:57.512Z,29.96
2018-10-11T11:12:52.547Z,30.57
2018-10-11T11:18:47.527Z,29.76
2018-10-11T11:24:42.542Z,28.85
2018-10-11T11:30:37.542Z,28.38
2018-10-11T11:36:32.530Z,24.93
2018-10-11T11:42:27.540Z,26.07
2018-10-11T11:48:22.560Z,28.76
2018-10-11T12:12:02.556Z,23.69
2018-10-11T12:12:02.590Z,23.7
2018-10-11T12:12:02.623Z,25.27
2018-10-11T12:12:02.633Z,25.27
2018-10-11T12:17:57.549Z,24.33
2018-10-11T12:23:52.619Z,24.86
2018-10-11T12:29:47.538Z,27.18
2018-10-11T12:35:42.584Z,25.24
2018-10-11T12:41:37.604Z,25.1
2018-10-11T12:47:32.577Z,22.13
2018-10-11T12:53:27.557Z,20
2018-10-11T12:59:22.593Z,19.33
2018-10-11T13:05:17.555Z,21.29
2018-10-11T13:11:12.576Z,18.96
2018-10-11T13:17:07.563Z,17.09
2018-10-11T13:23:02.756Z,18.69
2018-10-11T13:28:57.668Z,15.36
2018-10-11T13:34:52.667Z,16.93
2018-10-11T13:40:47.631Z,17.19
2018-10-11T13:46:42.629Z,14.53
2018-10-11T13:52:37.596Z,12.65
2018-10-11T13:58:32.591Z,12.32
2018-10-11T14:04:27.623Z,12.34
2018-10-11T14:10:22.598Z,9.16
2018-10-11T14:16:17.600Z,8.5
2018-10-11T14:22:12.623Z,9.58
2018-10-11T14:28:07.653Z,10.29
2018-10-11T14:34:02.600Z,11.04
2018-10-11T14:39:57.620Z,9.46
2018-10-11T14:45:52.603Z,10.37
2018-10-11T14:51:48.784Z,10.76
2018-10-11T15:15:27.626Z,10.89
2018-10-11T15:15:27.674Z,11.38
2018-10-11T15:15:27.691Z,11.38
2018-10-11T15:15:27.704Z,11.38
2018-10-11T15:21:22.631Z,9.38
2018-10-11T15:27:17.618Z,11.87
2018-10-11T15:33:12.644Z,8.47
2018-10-11T15:39:07.650Z,9.41
2018-10-11T15:45:02.652Z,9.73
2018-10-11T15:50:57.650Z,12.19
2018-10-11T15:56:52.646Z,13.08
2018-10-11T16:02:47.646Z,8.81
2018-10-11T16:08:42.649Z,8.93
2018-10-11T16:14:37.660Z,10.41
2018-10-11T16:20:32.684Z,9.9
2018-10-11T16:26:27.642Z,16.72
2018-10-11T16:32:22.653Z,18.93
2018-10-11T16:38:17.634Z,10.78
2018-10-11T16:44:12.665Z,8.79
2018-10-11T16:50:07.806Z,11.47
2018-10-11T16:56:02.682Z,10.25
2018-10-11T17:01:57.650Z,11.18
2018-10-11T17:07:52.812Z,11.77
2018-10-11T17:13:47.645Z,10.3
2018-10-11T17:19:42.666Z,10.02
2018-10-11T17:25:37.670Z,15.51
2018-10-11T17:31:32.659Z,10.84
2018-10-11T17:37:27.693Z,13.21
2018-10-11T17:43:22.682Z,13.16
2018-10-11T17:49:17.642Z,13.82
2018-10-11T18:12:57.703Z,10.59
2018-10-11T18:12:57.720Z,13.07
2018-10-11T18:12:57.758Z,13.07
2018-10-11T18:12:57.786Z,13.07
2018-10-11T18:18:52.735Z,11.95
2018-10-11T18:24:47.675Z,13.81
2018-10-11T18:30:42.721Z,12.18
2018-10-11T18:36:37.687Z,13.08
2018-10-11T18:42:32.711Z,15.11
2018-10-11T18:48:27.664Z,10.8
2018-10-11T18:54:22.666Z,10.27
2018-10-11T19:00:17.697Z,10.63
2018-10-11T19:06:12.688Z,10.41
2018-10-11T19:12:07.675Z,11.77
2018-10-11T19:18:02.760Z,8.98
2018-10-11T19:23:57.689Z,10.67
2018-10-11T19:29:52.722Z,9.2
2018-10-11T19:35:47.683Z,9.15
2018-10-11T19:41:42.702Z,10.74
2018-10-11T19:47:37.712Z,10.17
2018-10-11T19:53:32.704Z,11.97
2018-10-11T19:59:27.689Z,9.82
2018-10-11T20:05:22.705Z,10.66
2018-10-11T20:11:17.741Z,10.23
2018-10-11T20:17:12.783Z,9.7
2018-10-11T20:23:07.710Z,12.59
2018-10-11T20:29:02.821Z,13.99
2018-10-11T20:34:57.718Z,18.31
2018-10-11T20:40:52.781Z,18.43
2018-10-11T20:46:47.799Z,13.37
2018-10-11T20:52:42.743Z,13.54
2018-10-11T21:16:22.722Z,13.19
2018-10-11T21:16:22.757Z,8.2
2018-10-11T21:16:22.799Z,8.2
2018-10-11T21:16:22.860Z,8.2
2018-10-11T21:22:17.730Z,9.5
2018-10-11T21:28:12.773Z,8.45
2018-10-11T21:34:07.777Z,7.6
2018-10-11T21:40:02.755Z,6.34
2018-10-11T21:45:57.742Z,9.53
2018-10-11T21:51:52.708Z,9.37
2018-10-11T21:57:47.741Z,8.32
2018-10-11T22:03:42.730Z,8.46
2018-10-11T22:09:37.774Z,7.41
2018-10-11T22:15:32.805Z,9.51
2018-10-11T22:21:27.749Z,6.86
2018-10-11T22:27:22.735Z,9.36
2018-10-11T22:33:17.749Z,8.68
2018-10-11T22:39:12.779Z,7.1
2018-10-11T22:45:07.756Z,8.69
2018-10-11T22:51:02.708Z,9.5
2018-10-11T22:56:57.723Z,6.39
2018-10-11T23:02:52.727Z,8.15
2018-10-11T23:08:47.739Z,8.18
2018-10-11T23:14:42.762Z,8.93
2018-10-11T23:20:37.755Z,10.43
2018-10-11T23:26:32.737Z,13.1
2018-10-11T23:32:27.741Z,10.71
2018-10-11T23:38:22.792Z,10.25
2018-10-11T23:44:17.728Z,9.11
2018-10-11T23:50:12.734Z,7.71
